Time;durP1;ratioP1;P1;durP2;ratioP2;P2;SDS_P1;SDS_P2;PMS_P1;PMS_P2;Temp;Humidity;BMP_temperature;BMP_pressure;BME280_temperature;BME280_humidity;BME280_pressure;Samples;Min_cycle;Max_cycle;Signal;HPM_P1;HPM_P2
2023/11/28 00:00:56;;;;;;;15.55;14.45;;;0.50;99.90;;;;;;15246766;23;20026;-84
2023/11/28 00:06:58;;;;;;;16.58;15.45;;;0.50;99.90;;;;;;15244891;23;20044;-86
2023/11/28 00:13:00;;;;;;;16.00;14.90;;;0.50;99.90;;;;;;15249196;23;20344;-85
2023/11/28 00:19:02;;;;;;;16.35;15.25;;;0.40;99.90;;;;;;15247447;23;20399;-83
2023/11/28 00:25:06;;;;;;;14.60;13.60;;;0.40;99.90;;;;;;15248570;23;20071;-83
2023/11/28 00:31:07;;;;;;;14.18;13.18;;;0.40;99.90;;;;;;15252057;23;20025;-84
2023/11/28 00:37:10;;;;;;;13.10;12.23;;;0.50;99.90;;;;;;15248787;23;20025;-84
2023/11/28 00:43:15;;;;;;;13.30;12.40;;;0.50;99.90;;;;;;15255871;23;20347;-83
2023/11/28 00:49:17;;;;;;;13.20;12.30;;;0.40;99.90;;;;;;15253073;23;20032;-84
2023/11/28 00:55:20;;;;;;;12.10;11.30;;;0.40;99.90;;;;;;15256663;23;20065;-84
2023/11/28 01:01:22;;;;;;;11.57;10.80;;;0.50;99.90;;;;;;15252422;23;20026;-84
2023/11/28 01:07:24;;;;;;;11.13;10.38;;;0.40;99.90;;;;;;15248005;23;20022;-85
2023/11/28 01:13:26;;;;;;;12.13;11.35;;;0.40;99.90;;;;;;15253679;23;20028;-84
2023/11/28 01:19:27;;;;;;;11.45;10.65;;;0.50;99.90;;;;;;15247188;23;20066;-83
2023/11/28 01:25:30;;;;;;;12.60;11.80;;;0.40;99.90;;;;;;15255400;23;20025;-83
2023/11/28 01:31:32;;;;;;;12.70;11.82;;;0.40;99.90;;;;;;15248044;23;20098;-83
2023/11/28 01:37:35;;;;;;;11.88;11.18;;;0.40;99.90;;;;;;15255137;22;20476;-84
2023/11/28 01:43:37;;;;;;;12.20;11.40;;;0.40;99.90;;;;;;15247640;23;20465;-85
2023/11/28 01:49:41;;;;;;;12.18;11.48;;;0.50;99.90;;;;;;15250421;23;20022;-84
2023/11/28 01:55:44;;;;;;;12.73;11.87;;;0.50;99.90;;;;;;15249174;23;20025;-83
2023/11/28 02:01:48;;;;;;;13.38;12.52;;;0.40;99.90;;;;;;15246287;23;20021;-83
2023/11/28 02:07:50;;;;;;;13.88;12.93;;;0.40;99.90;;;;;;15251921;23;20064;-83
2023/11/28 02:13:52;;;;;;;15.95;14.85;;;0.40;99.90;;;;;;15250246;23;20030;-83
2023/11/28 02:19:57;;;;;;;16.02;14.90;;;0.50;99.90;;;;;;15246598;23;20914;-83
2023/11/28 02:26:05;;;;;;;13.60;12.63;;;0.30;99.90;;;;;;15244276;23;20029;-83
2023/11/28 02:32:07;;;;;;;15.52;14.43;;;0.40;99.90;;;;;;15248372;23;20456;-83
2023/11/28 02:38:09;;;;;;;14.98;13.88;;;0.30;99.90;;;;;;15245889;23;20026;-83
2023/11/28 02:44:11;;;;;;;14.95;13.70;;;0.40;99.90;;;;;;15242125;23;20017;-83
2023/11/28 02:50:13;;;;;;;14.02;13.02;;;0.30;99.90;;;;;;15244576;23;20130;-83
2023/11/28 02:56:15;;;;;;;14.50;13.48;;;0.50;99.90;;;;;;15238903;23;20554;-83
2023/11/28 03:02:17;;;;;;;14.15;13.10;;;0.40;99.90;;;;;;15244507;23;20030;-83
2023/11/28 03:08:19;;;;;;;14.35;13.25;;;0.40;99.90;;;;;;15250372;22;20065;-82
2023/11/28 03:14:23;;;;;;;13.75;12.65;;;0.40;99.90;;;;;;15252570;23;20106;-83
2023/11/28 03:20:25;;;;;;;14.88;13.77;;;0.30;99.90;;;;;;15248002;23;20025;-82
2023/11/28 03:26:27;;;;;;;13.68;12.48;;;0.30;99.90;;;;;;15244106;23;20068;-82
2023/11/28 03:32:29;;;;;;;13.23;12.02;;;0.30;99.90;;;;;;15247718;23;20021;-83
2023/11/28 03:38:32;;;;;;;12.70;11.70;;;0.20;99.90;;;;;;15237237;23;20029;-81
2023/11/28 03:44:34;;;;;;;12.70;11.70;;;0.20;99.90;;;;;;15248313;23;20026;-81
2023/11/28 03:50:35;;;;;;;12.27;11.27;;;0.40;99.90;;;;;;15247877;23;20041;-81
2023/11/28 03:56:37;;;;;;;13.93;12.73;;;0.30;99.90;;;;;;15240000;23;20035;-81
2023/11/28 04:02:39;;;;;;;12.10;11.00;;;0.20;99.90;;;;;;15246673;23;20110;-81
2023/11/28 04:08:41;;;;;;;12.23;11.10;;;0.30;99.90;;;;;;15251894;23;20029;-82
2023/11/28 04:14:43;;;;;;;12.93;11.40;;;0.30;99.90;;;;;;15247732;23;20356;-81
2023/11/28 04:20:45;;;;;;;12.18;9.77;;;0.30;99.90;;;;;;15252097;23;20021;-82
2023/11/28 04:26:47;;;;;;;11.15;9.98;;;0.20;99.90;;;;;;15245873;23;20025;-83
2023/11/28 04:32:49;;;;;;;11.52;10.15;;;0.10;99.90;;;;;;15252964;23;20067;-81
2023/11/28 04:38:52;;;;;;;13.13;10.43;;;0.20;99.90;;;;;;15252166;23;20021;-83
2023/11/28 04:44:54;;;;;;;11.93;10.18;;;0.20;99.90;;;;;;15247746;23;20028;-82
2023/11/28 04:50:56;;;;;;;14.00;9.88;;;0.10;99.90;;;;;;15253211;23;20382;-83
2023/11/28 04:56:58;;;;;;;12.18;9.40;;;0.10;99.90;;;;;;15250029;23;20025;-82
2023/11/28 05:03:01;;;;;;;10.38;9.30;;;0.10;99.90;;;;;;15255942;23;20029;-82
2023/11/28 05:09:04;;;;;;;9.75;8.18;;;0.10;99.90;;;;;;15253936;23;20083;-82
2023/11/28 05:15:06;;;;;;;9.70;8.27;;;0.10;99.90;;;;;;15252596;23;20033;-82
2023/11/28 05:21:08;;;;;;;9.10;7.13;;;0.00;99.90;;;;;;15247978;23;20025;-82
2023/11/28 05:27:13;;;;;;;7.78;6.95;;;0.00;99.90;;;;;;15248750;22;20490;-83
2023/11/28 05:33:16;;;;;;;10.05;6.72;;;0.00;99.90;;;;;;15255531;23;20041;-82
2023/11/28 05:39:18;;;;;;;8.68;7.20;;;-0.10;99.90;;;;;;15231337;23;20455;-82
2023/11/28 05:45:19;;;;;;;8.15;7.10;;;0.00;99.90;;;;;;15245138;23;20022;-81
2023/11/28 05:51:21;;;;;;;9.57;7.22;;;-0.10;99.90;;;;;;15250107;23;20029;-80
2023/11/28 05:57:23;;;;;;;11.82;6.90;;;-0.10;99.90;;;;;;15248642;23;20378;-82
2023/11/28 06:03:25;;;;;;;9.18;5.55;;;0.00;99.90;;;;;;15245276;23;20025;-81
2023/11/28 06:09:28;;;;;;;8.10;6.38;;;-0.10;99.90;;;;;;15244011;23;20083;-83
2023/11/28 06:15:30;;;;;;;6.03;5.43;;;-0.20;99.90;;;;;;15247278;23;20021;-83
2023/11/28 06:21:32;;;;;;;5.35;4.85;;;-0.30;99.90;;;;;;15250159;23;20032;-82
2023/11/28 06:27:34;;;;;;;5.70;4.72;;;-0.30;99.90;;;;;;15246188;23;20027;-82
2023/11/28 06:33:36;;;;;;;5.10;4.40;;;-0.40;99.90;;;;;;15220155;23;20585;-83
2023/11/28 06:39:39;;;;;;;4.18;3.78;;;-0.40;99.90;;;;;;15245813;23;20026;-82
2023/11/28 06:45:42;;;;;;;5.22;4.10;;;-0.50;99.90;;;;;;15245992;23;20057;-81
2023/11/28 06:51:44;;;;;;;4.50;4.10;;;-0.50;99.90;;;;;;15246730;23;20063;-81
2023/11/28 06:57:45;;;;;;;3.63;3.30;;;-0.70;99.90;;;;;;15244544;23;20274;-80
2023/11/28 07:03:47;;;;;;;4.05;3.65;;;-0.70;99.90;;;;;;15249500;23;20037;-80
2023/11/28 07:09:49;;;;;;;3.30;2.88;;;-0.80;99.90;;;;;;15243819;23;20058;-80
2023/11/28 07:15:51;;;;;;;4.00;3.50;;;-0.80;99.90;;;;;;15243517;23;20021;-80
2023/11/28 07:21:53;;;;;;;3.88;3.08;;;-0.90;99.90;;;;;;15223748;23;20084;-80
2023/11/28 07:27:55;;;;;;;3.25;2.95;;;-0.90;99.90;;;;;;15245584;23;20033;-80
2023/11/28 07:33:57;;;;;;;3.63;2.97;;;-0.80;99.90;;;;;;15244108;23;20029;-80
2023/11/28 07:39:59;;;;;;;3.50;3.20;;;-1.00;99.90;;;;;;15250838;23;20100;-80
2023/11/28 07:46:01;;;;;;;4.28;3.60;;;-0.90;99.90;;;;;;15247331;23;20118;-80
2023/11/28 07:52:03;;;;;;;4.05;3.50;;;-0.80;99.90;;;;;;15248448;23;20072;-80
2023/11/28 07:58:05;;;;;;;4.88;3.85;;;-0.80;99.90;;;;;;15243893;23;20300;-80
2023/11/28 08:04:08;;;;;;;4.15;3.67;;;-0.70;99.90;;;;;;15249139;23;20030;-80
2023/11/28 08:10:11;;;;;;;4.20;3.80;;;-0.60;99.90;;;;;;15249159;23;20051;-82
2023/11/28 08:16:13;;;;;;;4.25;3.85;;;-0.40;99.90;;;;;;15250846;23;20353;-82
2023/11/28 08:22:17;;;;;;;5.60;3.92;;;-0.40;99.90;;;;;;15240549;23;20316;-82
2023/11/28 08:28:19;;;;;;;5.35;3.92;;;-0.40;99.90;;;;;;15246256;22;20021;-81
2023/11/28 08:34:21;;;;;;;7.43;4.20;;;-0.30;99.90;;;;;;15249424;23;20096;-82
2023/11/28 08:40:23;;;;;;;4.60;3.97;;;-0.40;99.90;;;;;;15247098;23;20078;-82
2023/11/28 08:46:25;;;;;;;4.40;3.92;;;-0.30;99.90;;;;;;15249669;23;20018;-82
2023/11/28 08:52:29;;;;;;;5.68;3.92;;;-0.20;99.90;;;;;;15253451;23;20037;-81
2023/11/28 08:58:31;;;;;;;5.97;4.28;;;-0.10;99.90;;;;;;15254757;23;20108;-81
2023/11/28 09:04:34;;;;;;;4.68;3.95;;;-0.10;99.90;;;;;;15254395;23;20021;-82
2023/11/28 09:10:36;;;;;;;5.55;4.25;;;0.10;99.90;;;;;;15250963;23;20096;-82
2023/11/28 09:16:38;;;;;;;4.03;3.63;;;0.10;99.90;;;;;;15254124;23;20486;-82
2023/11/28 09:22:40;;;;;;;6.47;4.50;;;0.30;99.90;;;;;;15256206;23;20028;-82
2023/11/28 09:28:42;;;;;;;5.63;3.83;;;0.40;99.90;;;;;;15251326;23;20026;-81
2023/11/28 09:34:44;;;;;;;4.60;3.80;;;0.30;99.90;;;;;;15251006;23;20025;-81
2023/11/28 09:40:48;;;;;;;5.47;4.18;;;0.40;99.90;;;;;;15252673;23;20022;-80
2023/11/28 09:46:51;;;;;;;5.97;3.78;;;0.60;99.90;;;;;;15248261;23;20481;-81
2023/11/28 09:52:54;;;;;;;4.03;3.63;;;0.90;99.90;;;;;;15248201;23;20030;-80
2023/11/28 09:59:00;;;;;;;4.53;3.97;;;0.80;99.90;;;;;;15250636;23;20452;-81
2023/11/28 10:05:03;;;;;;;3.88;3.38;;;0.70;99.90;;;;;;15249189;23;20348;-81
2023/11/28 10:11:06;;;;;;;4.35;3.35;;;0.70;99.90;;;;;;15251950;23;20036;-80
2023/11/28 10:17:11;;;;;;;4.78;3.63;;;0.70;99.90;;;;;;15248700;23;20087;-80
2023/11/28 10:23:17;;;;;;;4.45;4.05;;;0.70;99.90;;;;;;15249895;23;20025;-80
2023/11/28 10:29:20;;;;;;;4.93;4.38;;;0.60;99.90;;;;;;15248533;23;20030;-82
2023/11/28 10:35:22;;;;;;;5.20;4.10;;;0.50;99.90;;;;;;15245753;23;20033;-81
2023/11/28 10:41:31;;;;;;;7.05;3.80;;;0.40;99.90;;;;;;15249186;23;20100;-81
2023/11/28 10:47:36;;;;;;;5.18;3.55;;;0.30;99.90;;;;;;15249317;23;20030;-81
2023/11/28 10:53:41;;;;;;;4.93;3.90;;;0.30;99.90;;;;;;15249418;23;20099;-81
2023/11/28 10:59:43;;;;;;;7.15;3.65;;;0.20;99.90;;;;;;15249609;23;20022;-80
2023/11/28 11:05:46;;;;;;;4.50;3.50;;;0.50;99.90;;;;;;15248855;23;20535;-80
2023/11/28 11:11:48;;;;;;;3.95;3.30;;;0.90;99.90;;;;;;15250017;23;20241;-80
2023/11/28 11:18:01;;;;;;;4.07;3.55;;;1.00;99.90;;;;;;15249395;23;20049;-81
2023/11/28 11:24:03;;;;;;;4.85;3.30;;;0.80;99.90;;;;;;15250604;23;20043;-80
2023/11/28 11:30:08;;;;;;;4.32;3.40;;;0.90;99.90;;;;;;15246205;23;20032;-81
2023/11/28 11:36:13;;;;;;;6.38;3.35;;;0.90;99.90;;;;;;15249445;23;20021;-81
2023/11/28 11:42:21;;;;;;;5.75;3.65;;;0.80;99.90;;;;;;15247867;23;20142;-80
2023/11/28 11:48:24;;;;;;;3.75;2.60;;;0.80;99.90;;;;;;15249168;23;20025;-81
2023/11/28 11:54:27;;;;;;;4.50;2.85;;;0.70;99.90;;;;;;15250683;23;20605;-81
2023/11/28 12:00:28;;;;;;;4.30;3.00;;;0.60;99.90;;;;;;15250817;23;20018;-81
2023/11/28 12:06:30;;;;;;;6.53;2.90;;;0.40;99.90;;;;;;15251219;23;20022;-82
2023/11/28 12:12:32;;;;;;;5.97;3.08;;;0.60;99.90;;;;;;15249061;23;20026;-81
2023/11/28 12:18:34;;;;;;;3.80;2.70;;;0.70;99.90;;;;;;15251727;23;20029;-82
2023/11/28 12:24:37;;;;;;;3.40;2.45;;;1.00;99.90;;;;;;15250831;23;20530;-82
2023/11/28 12:30:39;;;;;;;2.78;1.98;;;1.00;99.90;;;;;;15255717;23;20037;-82
2023/11/28 12:36:45;;;;;;;3.85;2.60;;;0.80;99.90;;;;;;15251634;23;20030;-82
2023/11/28 12:42:48;;;;;;;3.70;2.50;;;0.80;99.90;;;;;;15255099;23;20029;-82
2023/11/28 12:48:50;;;;;;;3.67;2.70;;;0.90;99.90;;;;;;15254020;23;20080;-82
2023/11/28 12:54:52;;;;;;;3.50;2.47;;;0.90;99.90;;;;;;15251160;23;20026;-81
2023/11/28 13:00:54;;;;;;;3.63;2.30;;;0.90;99.90;;;;;;15248155;23;20030;-82
2023/11/28 13:06:56;;;;;;;3.45;2.30;;;1.00;99.90;;;;;;15252162;23;20125;-81
2023/11/28 13:13:18;;;;;;;3.53;2.58;;;1.00;99.90;;;;;;15250291;23;20025;-81
2023/11/28 13:19:20;;;;;;;4.95;2.20;;;0.90;99.90;;;;;;15251808;23;20022;-81
2023/11/28 13:25:22;;;;;;;4.20;2.63;;;1.00;99.90;;;;;;15248663;23;20021;-81
2023/11/28 13:31:24;;;;;;;6.30;3.60;;;1.00;99.90;;;;;;15252776;23;20026;-81
2023/11/28 13:37:27;;;;;;;9.07;3.00;;;1.00;99.90;;;;;;15254341;23;20025;-81
2023/11/28 13:43:29;;;;;;;4.35;2.83;;;1.00;99.90;;;;;;15252519;23;20025;-81
2023/11/28 13:49:31;;;;;;;3.60;2.75;;;1.10;99.90;;;;;;15256139;23;20029;-82
2023/11/28 13:55:37;;;;;;;4.38;2.97;;;1.10;99.90;;;;;;15255468;23;20095;-81
2023/11/28 14:01:39;;;;;;;3.60;2.45;;;0.90;99.90;;;;;;15246612;23;20029;-81
2023/11/28 14:07:41;;;;;;;8.38;3.20;;;0.90;99.90;;;;;;15247413;23;20091;-81
2023/11/28 14:13:43;;;;;;;4.05;2.67;;;0.80;99.90;;;;;;15251890;23;20073;-81
2023/11/28 14:19:45;;;;;;;4.80;3.22;;;0.70;99.90;;;;;;15251392;23;20029;-82
2023/11/28 14:25:47;;;;;;;5.13;2.80;;;0.70;99.90;;;;;;15258309;22;20056;-81
2023/11/28 14:32:04;;;;;;;7.32;4.22;;;0.60;99.90;;;;;;12588242;27;20123;-34
2023/11/28 14:38:07;;;;;;;5.05;3.30;;;0.60;99.90;;;;;;12583806;28;20577;-34
2023/11/28 14:44:09;;;;;;;4.90;3.27;;;0.50;99.90;;;;;;12587449;28;20056;-33
2023/11/28 14:50:11;;;;;;;5.78;3.72;;;0.50;99.90;;;;;;12573446;28;20326;-34
2023/11/28 14:56:13;;;;;;;7.18;4.00;;;0.30;99.90;;;;;;12581249;28;20041;-34
2023/11/28 15:02:18;;;;;;;5.13;3.63;;;0.20;99.90;;;;;;12556994;28;20500;-35
2023/11/28 15:08:20;;;;;;;7.07;4.70;;;0.20;99.90;;;;;;12550487;28;20044;-35
2023/11/28 15:14:27;;;;;;;7.22;4.35;;;0.20;99.90;;;;;;12540300;28;20202;-34
2023/11/28 15:20:29;;;;;;;6.50;3.90;;;0.20;99.90;;;;;;12543189;28;20060;-34
2023/11/28 15:26:31;;;;;;;15.68;8.00;;;0.30;99.90;;;;;;12549696;28;20055;-34
2023/11/28 15:32:33;;;;;;;10.10;6.82;;;0.30;99.90;;;;;;12579238;28;20053;-34
2023/11/28 15:38:36;;;;;;;7.57;5.47;;;0.10;99.90;;;;;;12581268;28;20056;-34
2023/11/28 15:44:38;;;;;;;7.15;4.75;;;0.10;99.90;;;;;;12558296;28;20150;-34
2023/11/28 15:50:41;;;;;;;6.00;4.53;;;0.00;99.90;;;;;;12559983;28;20067;-34
2023/11/28 15:56:43;;;;;;;6.57;4.32;;;0.10;99.90;;;;;;12563077;28;20048;-34
2023/11/28 16:02:48;;;;;;;7.05;5.40;;;0.00;99.90;;;;;;12545606;28;20431;-34
2023/11/28 16:08:52;;;;;;;6.97;5.18;;;-0.10;99.90;;;;;;12558521;28;20492;-34
2023/11/28 16:14:54;;;;;;;6.80;4.57;;;-0.10;99.90;;;;;;12562752;28;20081;-34
2023/11/28 16:20:57;;;;;;;8.10;5.32;;;-0.10;99.90;;;;;;12558003;28;20081;-34
2023/11/28 16:26:59;;;;;;;8.82;5.10;;;-0.30;99.90;;;;;;12545569;28;20048;-35
2023/11/28 16:33:00;;;;;;;8.52;4.95;;;-0.40;99.90;;;;;;12554577;28;20060;-34
2023/11/28 16:39:05;;;;;;;9.73;6.15;;;-0.50;99.90;;;;;;12550035;28;20044;-34
2023/11/28 16:45:07;;;;;;;9.60;5.75;;;-0.60;99.90;;;;;;12557143;28;20563;-34
2023/11/28 16:51:13;;;;;;;10.77;6.60;;;-0.70;99.90;;;;;;12561853;28;20374;-34
2023/11/28 16:57:15;;;;;;;12.43;6.90;;;-0.60;99.90;;;;;;12555496;28;20867;-34
2023/11/28 17:03:19;;;;;;;11.23;6.57;;;-0.60;99.90;;;;;;12558643;28;20058;-34
2023/11/28 17:09:22;;;;;;;12.80;7.60;;;-0.50;99.90;;;;;;12560075;28;20197;-34
2023/11/28 17:15:23;;;;;;;10.02;6.80;;;-0.40;99.90;;;;;;12543633;28;20315;-34
2023/11/28 17:21:25;;;;;;;13.18;7.72;;;-0.30;99.90;;;;;;12557833;28;20619;-34
2023/11/28 17:27:27;;;;;;;10.20;6.63;;;-0.60;99.90;;;;;;12547471;28;20059;-34
2023/11/28 17:33:29;;;;;;;12.13;7.05;;;-0.70;99.90;;;;;;12561315;28;20080;-34
2023/11/28 17:39:31;;;;;;;11.63;6.82;;;-0.80;99.90;;;;;;12560551;28;20052;-34
2023/11/28 17:45:33;;;;;;;10.30;6.68;;;-0.90;99.90;;;;;;12555952;28;20098;-34
2023/11/28 17:51:38;;;;;;;11.00;7.22;;;-1.00;99.90;;;;;;12557078;28;20044;-34
2023/11/28 17:57:40;;;;;;;10.85;7.10;;;-1.10;99.90;;;;;;12558437;28;20051;-34
2023/11/28 18:03:42;;;;;;;10.63;6.25;;;-1.10;99.90;;;;;;12554541;28;20501;-34
2023/11/28 18:09:44;;;;;;;15.18;7.45;;;-1.20;99.90;;;;;;12558617;28;20611;-34
2023/11/28 18:15:51;;;;;;;12.35;7.35;;;-1.20;99.90;;;;;;12561013;28;20040;-34
2023/11/28 18:21:53;;;;;;;13.68;7.70;;;-1.30;99.90;;;;;;12551009;28;20055;-34
2023/11/28 18:27:55;;;;;;;12.45;7.47;;;-1.30;99.90;;;;;;12555518;28;20068;-34
2023/11/28 18:33:59;;;;;;;16.48;8.70;;;-1.30;99.90;;;;;;12557257;28;20048;-34
2023/11/28 18:40:01;;;;;;;15.57;8.30;;;-1.20;99.90;;;;;;12557198;28;20501;-35
2023/11/28 18:46:05;;;;;;;15.80;8.05;;;-1.30;99.90;;;;;;12519942;28;20048;-34
2023/11/28 18:52:08;;;;;;;;;;;-1.30;99.90;;;;;;12565608;28;20071;-34
2023/11/28 18:58:10;;;;;;;12.00;7.15;;;-1.30;99.90;;;;;;12540491;28;19924;-34
2023/11/28 19:04:12;;;;;;;14.85;7.68;;;-1.30;99.90;;;;;;12534924;28;20163;-34
2023/11/28 19:10:15;;;;;;;14.52;7.47;;;-1.30;99.90;;;;;;12547145;28;20055;-35
2023/11/28 19:16:17;;;;;;;13.52;7.78;;;-1.20;99.90;;;;;;12557157;28;20048;-34
2023/11/28 19:22:19;;;;;;;15.40;8.07;;;-1.20;99.90;;;;;;12561302;28;20083;-33
2023/11/28 19:28:22;;;;;;;14.65;8.23;;;-1.30;99.90;;;;;;12561293;28;20401;-34
2023/11/28 19:34:24;;;;;;;14.68;7.65;;;-1.30;99.90;;;;;;12561869;28;20063;-35
2023/11/28 19:40:26;;;;;;;13.90;7.47;;;-1.20;99.90;;;;;;12556968;28;20154;-34
2023/11/28 19:46:31;;;;;;;17.45;8.30;;;-1.20;99.90;;;;;;12555885;28;20037;-34
2023/11/28 19:52:33;;;;;;;14.05;7.65;;;-1.30;99.90;;;;;;12556279;28;20133;-34
2023/11/28 19:58:36;;;;;;;13.23;7.47;;;-1.30;99.90;;;;;;12566126;28;20171;-34
2023/11/28 20:04:38;;;;;;;14.20;7.50;;;-1.30;99.90;;;;;;12562276;28;20076;-34
2023/11/28 20:10:40;;;;;;;14.05;8.40;;;-1.30;99.90;;;;;;12559624;28;20041;-35
2023/11/28 20:16:43;;;;;;;16.30;8.95;;;-1.30;99.90;;;;;;12561983;28;20061;-35
2023/11/28 20:22:45;;;;;;;15.77;9.33;;;-1.30;99.90;;;;;;12562501;28;20298;-36
2023/11/28 20:28:47;;;;;;;16.70;8.93;;;-1.20;99.90;;;;;;12559236;28;20078;-34
2023/11/28 20:34:51;;;;;;;14.95;8.73;;;-1.20;99.90;;;;;;12561717;28;20044;-34
2023/11/28 20:40:54;;;;;;;18.80;9.38;;;-1.30;99.90;;;;;;12561591;28;20689;-34
2023/11/28 20:46:56;;;;;;;17.20;9.52;;;-1.20;99.90;;;;;;12554127;28;20072;-34
2023/11/28 20:53:01;;;;;;;15.05;8.02;;;-1.30;99.90;;;;;;12559773;28;20083;-34
2023/11/28 20:59:03;;;;;;;14.25;8.25;;;-1.20;99.90;;;;;;12556878;28;20076;-34
2023/11/28 21:05:06;;;;;;;14.50;8.73;;;-1.20;99.90;;;;;;12548717;28;20068;-34
2023/11/28 21:11:13;;;;;;;15.55;7.68;;;-1.20;99.90;;;;;;12549538;28;20097;-34
2023/11/28 21:17:15;;;;;;;18.05;8.80;;;-1.10;99.90;;;;;;12550266;28;20531;-35
2023/11/28 21:23:17;;;;;;;15.02;9.05;;;-1.00;99.90;;;;;;12514072;28;20079;-35
2023/11/28 21:29:20;;;;;;;18.10;8.57;;;-0.90;99.90;;;;;;12549075;28;20060;-35
2023/11/28 21:35:22;;;;;;;12.55;8.23;;;-0.80;99.90;;;;;;12553110;28;20089;-34
2023/11/28 21:41:24;;;;;;;15.50;9.05;;;-0.80;99.90;;;;;;12555648;28;20523;-34
2023/11/28 21:47:27;;;;;;;18.88;8.55;;;-0.80;99.90;;;;;;12552422;28;20488;-35
2023/11/28 21:53:29;;;;;;;14.00;7.88;;;-0.70;99.90;;;;;;12561467;28;20049;-34
2023/11/28 21:59:31;;;;;;;14.38;8.13;;;-0.70;99.90;;;;;;12533315;28;20866;-34
2023/11/28 22:05:33;;;;;;;14.75;7.90;;;-0.70;99.90;;;;;;12557106;28;20381;-34
2023/11/28 22:11:35;;;;;;;14.32;7.80;;;-0.70;99.90;;;;;;12552703;28;20047;-34
2023/11/28 22:17:37;;;;;;;17.25;8.30;;;-0.70;99.90;;;;;;12555010;28;20044;-34
2023/11/28 22:23:39;;;;;;;13.10;8.10;;;-0.60;99.90;;;;;;12538976;28;20056;-35
2023/11/28 22:29:43;;;;;;;10.82;6.82;;;-0.50;99.90;;;;;;12554063;28;20068;-34
2023/11/28 22:35:45;;;;;;;11.40;7.00;;;-0.40;99.90;;;;;;12556695;28;20408;-35
2023/11/28 22:41:48;;;;;;;12.27;7.10;;;-0.40;99.90;;;;;;12554845;28;21724;-35
2023/11/28 22:47:50;;;;;;;12.13;6.53;;;-0.40;99.90;;;;;;12548742;28;20044;-34
2023/11/28 22:53:52;;;;;;;11.20;7.03;;;-0.30;99.90;;;;;;12565979;28;20102;-35
2023/11/28 22:59:54;;;;;;;10.20;7.35;;;-0.30;99.90;;;;;;12563970;28;20103;-35
2023/11/28 23:05:58;;;;;;;15.27;7.15;;;-0.30;99.90;;;;;;12567202;28;20048;-34
2023/11/28 23:12:00;;;;;;;15.10;8.60;;;-0.30;99.90;;;;;;12563385;28;20936;-35
2023/11/28 23:18:03;;;;;;;13.25;8.13;;;-0.30;99.90;;;;;;12564356;28;20413;-34
2023/11/28 23:24:12;;;;;;;12.45;7.53;;;-0.30;99.90;;;;;;12570612;28;20123;-34
2023/11/28 23:30:14;;;;;;;14.77;8.38;;;-0.20;99.90;;;;;;12566077;28;20084;-33
2023/11/28 23:36:16;;;;;;;14.02;9.05;;;-0.20;99.90;;;;;;12566744;28;20060;-33
2023/11/28 23:42:18;;;;;;;13.40;7.95;;;-0.30;99.90;;;;;;12566950;28;20131;-34
2023/11/28 23:48:20;;;;;;;11.98;7.45;;;-0.30;99.90;;;;;;12563330;28;20522;-33
2023/11/28 23:54:22;;;;;;;13.80;9.02;;;-0.30;99.90;;;;;;12565257;28;20504;-33
